Time;durP1;ratioP1;P1;durP2;ratioP2;P2;SDS_P1;SDS_P2;PMS_P1;PMS_P2;Temp;Humidity;BMP_temperature;BMP_pressure;BME280_temperature;BME280_humidity;BME280_pressure;Samples;Min_cycle;Max_cycle;Signal;HPM_P1;HPM_P2
2021/03/22 00:01:32;;;;;;;2.70;0.88;;;;;;;7.30;61.50;100797.03;4920093;28;98600;-60
2021/03/22 00:03:58;;;;;;;2.42;0.70;;;;;;;7.23;62.11;100795.53;4920900;28;101466;-63
2021/03/22 00:06:24;;;;;;;2.50;0.70;;;;;;;7.23;61.42;100798.22;4922056;28;98018;-61
2021/03/22 00:08:54;;;;;;;2.50;0.80;;;;;;;7.19;61.88;100807.78;4921083;28;119892;-61
2021/03/22 00:11:21;;;;;;;2.08;0.70;;;;;;;7.19;61.63;100805.94;4920144;28;99015;-64
2021/03/22 00:13:47;;;;;;;2.45;0.75;;;;;;;7.19;61.60;100807.78;4920955;28;98565;-63
2021/03/22 00:16:13;;;;;;;2.15;0.70;;;;;;;7.14;62.05;100805.81;4921929;28;98005;-63
2021/03/22 00:18:39;;;;;;;2.00;0.70;;;;;;;7.14;62.01;100811.19;4921264;28;112044;-64
2021/03/22 00:21:06;;;;;;;1.75;0.60;;;;;;;7.17;61.66;100818.75;4922259;28;98558;-60
2021/03/22 00:23:32;;;;;;;1.70;0.57;;;;;;;7.16;61.82;100819.00;4920768;28;98158;-63
2021/03/22 00:25:59;;;;;;;2.67;0.65;;;;;;;7.11;61.85;100823.22;4921108;28;112237;-63
2021/03/22 00:28:25;;;;;;;2.55;0.82;;;;;;;7.10;61.78;100821.56;4919640;28;126940;-64
2021/03/22 00:30:51;;;;;;;2.40;0.80;;;;;;;7.11;62.11;100820.53;4920972;28;98261;-61
2021/03/22 00:33:20;;;;;;;2.97;1.05;;;;;;;7.07;62.37;100823.91;4921114;28;98049;-63
2021/03/22 00:35:46;;;;;;;1.85;0.90;;;;;;;7.07;61.63;100827.41;4921925;28;97764;-60
2021/03/22 00:38:12;;;;;;;2.65;1.10;;;;;;;7.07;61.78;100821.22;4919919;28;128249;-63
2021/03/22 00:40:40;;;;;;;2.42;1.15;;;;;;;7.12;61.59;100824.03;4921090;28;98633;-61
2021/03/22 00:43:07;;;;;;;2.72;0.98;;;;;;;7.17;61.27;100821.44;4902903;28;97947;-61
2021/03/22 00:45:33;;;;;;;4.05;1.00;;;;;;;7.21;61.54;100821.78;4921860;28;97700;-61
2021/03/22 00:47:59;;;;;;;2.63;0.95;;;;;;;7.22;61.27;100829.59;4920315;28;127969;-61
2021/03/22 00:50:31;;;;;;;2.50;0.80;;;;;;;7.20;61.10;100823.66;4951112;28;127790;-63
2021/03/22 00:52:57;;;;;;;2.00;0.90;;;;;;;7.19;61.02;100824.72;4920252;28;98793;-61
2021/03/22 00:55:23;;;;;;;2.72;1.02;;;;;;;7.21;61.01;100824.47;4920531;28;108486;-61
2021/03/22 00:57:49;;;;;;;2.75;0.90;;;;;;;7.22;60.96;100816.19;4920834;28;117645;-63
2021/03/22 01:00:32;;;;;;;2.85;0.85;;;;;;;7.20;61.43;100818.31;4951292;28;98419;-64
2021/03/22 01:02:58;;;;;;;2.22;0.80;;;;;;;7.18;61.10;100816.91;4918409;28;113618;-61
2021/03/22 01:05:25;;;;;;;2.10;0.82;;;;;;;7.20;60.83;100812.94;4918840;28;115376;-61
2021/03/22 01:07:52;;;;;;;2.15;0.80;;;;;;;7.21;61.14;100813.75;4919458;28;99371;-61
2021/03/22 01:10:58;;;;;;;1.63;0.50;;;;;;;7.09;61.35;100805.72;4951700;28;110446;-63
2021/03/22 01:13:29;;;;;;;2.20;0.70;;;;;;;7.14;60.98;100801.28;4880785;28;98541;-61
2021/03/22 01:15:55;;;;;;;2.20;0.70;;;;;;;7.05;61.00;100797.34;4917566;28;105499;-64
2021/03/22 01:18:30;;;;;;;2.55;0.70;;;;;;;7.07;60.77;100797.94;4920548;28;98225;-61
2021/03/22 01:21:31;;;;;;;1.83;0.60;;;;;;;7.04;61.24;100801.06;4920412;28;118781;-63
2021/03/22 01:23:57;;;;;;;1.80;0.50;;;;;;;7.04;60.89;100802.94;4918962;28;98160;-63
2021/03/22 01:26:26;;;;;;;2.17;0.73;;;;;;;6.99;61.14;100798.25;4921762;28;98128;-61
2021/03/22 01:28:53;;;;;;;1.88;0.47;;;;;;;7.03;60.71;100799.44;4920699;28;98460;-61
2021/03/22 01:31:20;;;;;;;2.33;0.70;;;;;;;6.99;60.63;100798.25;4934882;28;110619;-61
2021/03/22 01:33:49;;;;;;;1.65;0.50;;;;;;;6.99;60.89;100800.13;4920404;28;97979;-63
2021/03/22 01:36:26;;;;;;;1.65;0.50;;;;;;;6.93;60.75;100790.38;4920685;28;98056;-63
2021/03/22 01:38:55;;;;;;;1.55;0.45;;;;;;;6.95;60.65;100797.09;4919741;28;99083;-63
2021/03/22 01:41:50;;;;;;;2.58;0.52;;;;;;;6.91;61.24;100792.47;4922616;28;98338;-64
2021/03/22 01:44:21;;;;;;;2.70;0.63;;;;;;;6.91;60.99;100789.78;4921225;28;97999;-61
2021/03/22 01:47:11;;;;;;;2.45;0.52;;;;;;;6.86;61.33;100788.63;4924598;28;98005;-61
2021/03/22 01:49:41;;;;;;;1.65;0.60;;;;;;;6.87;61.50;100786.75;4921644;28;98712;-63
2021/03/22 01:52:09;;;;;;;2.53;0.50;;;;;;;6.88;61.20;100788.41;4938044;28;99320;-63
2021/03/22 01:54:35;;;;;;;2.65;0.60;;;;;;;6.86;61.17;100790.50;4934550;28;114969;-63
2021/03/22 01:57:35;;;;;;;3.80;0.45;;;;;;;6.80;61.48;100786.09;4901747;28;112757;-61
2021/03/22 02:00:32;;;;;;;2.97;0.57;;;;;;;6.81;60.91;100785.03;4904080;28;98370;-63
2021/03/22 02:03:05;;;;;;;1.58;0.40;;;;;;;6.80;60.79;100786.88;4909149;28;99210;-60
2021/03/22 02:05:32;;;;;;;2.15;0.50;;;;;;;6.78;60.76;100780.94;4889242;28;98394;-63
2021/03/22 02:08:06;;;;;;;1.60;0.40;;;;;;;6.73;60.94;100783.50;4923582;28;97643;-61
2021/03/22 02:10:33;;;;;;;1.83;0.47;;;;;;;6.75;60.85;100780.59;4920918;28;103415;-60
2021/03/22 02:12:59;;;;;;;2.05;0.40;;;;;;;6.76;61.27;100774.16;4923965;28;98485;-60
2021/03/22 02:15:25;;;;;;;1.88;0.30;;;;;;;6.76;60.71;100777.69;4922123;28;118852;-63
2021/03/22 02:18:08;;;;;;;2.00;0.40;;;;;;;6.74;60.95;100785.13;4937695;28;115299;-61
2021/03/22 02:20:55;;;;;;;2.72;0.50;;;;;;;6.72;61.03;100786.41;4905463;28;98945;-60
2021/03/22 02:24:17;;;;;;;1.75;0.30;;;;;;;6.72;61.28;100779.22;4922740;28;97708;-64
2021/03/22 02:27:17;;;;;;;0.90;0.20;;;;;;;6.68;61.23;100782.56;4920112;28;98023;-61
2021/03/22 02:30:14;;;;;;;3.13;0.40;;;;;;;6.71;61.21;100784.78;4920538;28;97953;-63
2021/03/22 02:33:17;;;;;;;1.83;0.20;;;;;;;6.67;61.18;100795.16;4923078;28;98835;-63
2021/03/22 02:35:49;;;;;;;2.00;0.30;;;;;;;6.64;61.79;100774.19;4924670;28;98185;-61
2021/03/22 02:38:58;;;;;;;2.30;0.38;;;;;;;6.66;61.83;100785.50;4920882;28;98215;-60
2021/03/22 02:41:24;;;;;;;2.70;0.43;;;;;;;6.67;61.66;100787.13;4916453;28;97967;-61
2021/03/22 02:44:07;;;;;;;3.47;0.52;;;;;;;6.62;61.90;100790.50;4922494;28;98196;-63
2021/03/22 02:46:34;;;;;;;2.80;0.30;;;;;;;6.64;61.15;100791.09;4923007;28;99027;-63
2021/03/22 02:49:03;;;;;;;3.95;0.70;;;;;;;6.67;61.07;100791.66;4922317;28;98181;-63
2021/03/22 02:52:15;;;;;;;4.32;0.50;;;;;;;6.62;61.66;100790.50;4920503;28;110826;-60
2021/03/22 02:55:18;;;;;;;2.42;0.50;;;;;;;6.61;61.62;100796.91;4921768;28;98830;-63
2021/03/22 02:57:49;;;;;;;3.58;0.68;;;;;;;6.62;61.79;100800.41;4920487;28;99153;-60
2021/03/22 03:00:42;;;;;;;4.05;1.23;;;;;;;6.60;61.76;100799.81;4920828;28;103089;-61
2021/03/22 03:03:13;;;;;;;4.90;1.30;;;;;;;6.61;61.13;100804.94;4904493;28;98040;-63
2021/03/22 03:05:39;;;;;;;4.32;1.60;;;;;;;6.61;61.21;100806.81;4905666;28;97943;-63
2021/03/22 03:08:12;;;;;;;4.00;1.58;;;;;;;6.61;61.14;100807.63;4920834;28;129469;-63
2021/03/22 03:10:38;;;;;;;5.40;2.15;;;;;;;6.60;61.33;100808.69;4921954;28;111188;-60
2021/03/22 03:13:04;;;;;;;4.75;2.00;;;;;;;6.56;61.46;100810.19;4922010;28;97959;-60
2021/03/22 03:15:30;;;;;;;6.03;2.00;;;;;;;6.57;61.18;100808.34;4922440;28;98332;-60
2021/03/22 03:17:56;;;;;;;5.50;2.20;;;;;;;6.58;61.88;100824.16;4919738;28;113940;-60
2021/03/22 03:20:26;;;;;;;5.05;2.13;;;;;;;6.57;61.35;100819.84;4921986;28;128274;-64
2021/03/22 03:22:53;;;;;;;5.15;2.38;;;;;;;6.55;61.67;100827.28;4922635;28;97882;-60
2021/03/22 03:25:19;;;;;;;7.30;2.20;;;;;;;6.54;61.40;100830.22;4900783;28;101182;-63
2021/03/22 03:27:45;;;;;;;4.70;1.90;;;;;;;6.53;61.74;100829.41;4915829;28;125033;-63
2021/03/22 03:30:16;;;;;;;3.53;1.70;;;;;;;6.51;62.19;100838.72;4902231;28;97970;-60
2021/03/22 03:32:42;;;;;;;6.25;2.30;;;;;;;6.49;61.88;100824.75;4902863;28;97660;-63
2021/03/22 03:35:10;;;;;;;4.22;1.83;;;;;;;6.48;61.79;100826.59;4916067;28;114960;-63
2021/03/22 03:37:36;;;;;;;5.60;1.88;;;;;;;6.48;61.70;100831.13;4916720;28;98230;-63
2021/03/22 03:40:28;;;;;;;6.45;1.90;;;;;;;6.45;62.24;100832.41;4902418;28;98303;-60
2021/03/22 03:42:54;;;;;;;6.33;1.93;;;;;;;6.39;62.77;100836.81;4903008;28;97792;-61
2021/03/22 03:45:23;;;;;;;5.07;1.63;;;;;;;6.42;62.20;100840.91;4902662;28;98044;-63
2021/03/22 03:47:49;;;;;;;4.53;1.55;;;;;;;6.42;62.13;100842.78;4902781;28;98681;-63
2021/03/22 03:50:22;;;;;;;6.03;1.70;;;;;;;6.42;62.20;100838.22;4901199;28;128386;-63
2021/03/22 03:52:48;;;;;;;5.47;1.52;;;;;;;6.43;62.25;100836.38;4911623;28;97994;-60
2021/03/22 03:55:15;;;;;;;6.70;1.85;;;;;;;6.40;62.49;100848.34;4920268;28;127947;-60
2021/03/22 03:57:46;;;;;;;7.00;1.60;;;;;;;6.39;62.86;100850.22;4922180;28;98326;-60
2021/03/22 04:00:35;;;;;;;6.25;1.50;;;;;;;6.40;62.75;100840.31;4903901;28;97995;-63
2021/03/22 04:03:19;;;;;;;5.93;1.80;;;;;;;6.35;62.64;100837.53;4920887;28;97977;-60
2021/03/22 04:05:45;;;;;;;6.72;1.73;;;;;;;6.39;62.45;100836.00;4921805;28;98618;-63
2021/03/22 04:08:12;;;;;;;7.25;1.73;;;;;;;6.39;62.60;100849.41;4922124;28;98187;-60
2021/03/22 04:10:38;;;;;;;7.63;1.80;;;;;;;6.35;63.13;100846.38;4922085;28;98236;-60
2021/03/22 04:13:04;;;;;;;6.68;1.65;;;;;;;6.34;63.15;100847.41;4922313;28;97789;-63
2021/03/22 04:15:30;;;;;;;6.05;1.63;;;;;;;6.35;62.89;100846.38;4921533;28;99607;-60
2021/03/22 04:17:56;;;;;;;7.43;1.65;;;;;;;6.33;62.87;100847.66;4918559;28;128270;-60
2021/03/22 04:20:22;;;;;;;6.88;1.73;;;;;;;6.32;62.53;100852.16;4920757;28;98461;-60
2021/03/22 04:22:48;;;;;;;7.78;1.90;;;;;;;6.33;63.20;100855.69;4920580;28;123981;-64
2021/03/22 04:25:15;;;;;;;8.40;1.85;;;;;;;6.28;63.09;100853.69;4920853;28;117582;-63
2021/03/22 04:27:41;;;;;;;7.32;1.80;;;;;;;6.30;63.18;100859.63;4921319;28;98383;-60
2021/03/22 04:30:08;;;;;;;8.90;1.80;;;;;;;6.26;62.92;100866.50;4921444;28;97868;-60
2021/03/22 04:32:35;;;;;;;6.97;1.63;;;;;;;6.26;62.55;100857.66;4919718;28;97769;-63
2021/03/22 04:35:01;;;;;;;5.40;1.60;;;;;;;6.26;63.02;100854.97;4920181;28;110671;-61
2021/03/22 04:37:27;;;;;;;4.72;1.23;;;;;;;6.23;63.14;100855.41;4921387;28;110003;-63
2021/03/22 04:39:53;;;;;;;6.72;1.55;;;;;;;6.20;62.88;100848.66;4919615;28;122221;-60
2021/03/22 04:42:19;;;;;;;7.35;1.38;;;;;;;6.21;63.17;100852.16;4920566;28;113074;-60
2021/03/22 04:44:45;;;;;;;7.95;1.58;;;;;;;6.19;62.90;100847.03;4920071;28;121587;-62
2021/03/22 04:47:11;;;;;;;6.53;1.60;;;;;;;6.19;63.24;100849.72;4920686;28;120433;-60
2021/03/22 04:49:37;;;;;;;6.80;1.50;;;;;;;6.15;63.57;100854.69;4920898;28;98393;-60
2021/03/22 04:52:04;;;;;;;6.57;1.38;;;;;;;6.21;63.00;100847.63;4920976;28;114875;-60
2021/03/22 04:54:30;;;;;;;7.97;1.65;;;;;;;6.18;62.46;100858.78;4919384;28;113848;-63
2021/03/22 04:57:08;;;;;;;7.60;1.40;;;;;;;6.18;63.29;100866.81;4920150;28;127198;-63
2021/03/22 04:59:34;;;;;;;7.43;1.30;;;;;;;6.20;62.80;100863.91;4920484;28;115293;-63
2021/03/22 05:02:00;;;;;;;7.40;1.42;;;;;;;6.17;62.84;100859.84;4920770;28;122639;-60
2021/03/22 05:04:26;;;;;;;7.53;1.45;;;;;;;6.17;62.36;100861.69;4918978;28;98313;-62
2021/03/22 05:06:52;;;;;;;9.18;1.52;;;;;;;6.17;62.39;100862.53;4919886;28;116582;-63
2021/03/22 05:09:18;;;;;;;7.95;1.45;;;;;;;6.17;62.60;100867.03;4919316;28;127602;-60
2021/03/22 05:11:44;;;;;;;8.35;2.03;;;;;;;6.20;62.90;100866.59;4920517;28;98134;-63
2021/03/22 05:14:10;;;;;;;8.50;1.98;;;;;;;6.23;62.12;100868.81;4923010;28;128142;-63
2021/03/22 05:16:36;;;;;;;8.88;2.30;;;;;;;6.25;62.27;100866.69;4923416;28;128100;-60
2021/03/22 05:19:02;;;;;;;10.85;2.83;;;;;;;6.21;62.50;100869.06;4922531;28;99811;-60
2021/03/22 05:21:28;;;;;;;9.45;3.10;;;;;;;6.25;62.61;100867.53;4924489;28;108522;-60
2021/03/22 05:23:54;;;;;;;10.30;3.42;;;;;;;6.29;62.83;100873.25;4922894;28;121411;-60
2021/03/22 05:26:20;;;;;;;12.18;3.55;;;;;;;6.36;61.91;100879.31;4923428;28;128443;-63
2021/03/22 05:28:47;;;;;;;11.23;3.90;;;;;;;6.37;62.52;100876.41;4923111;28;122032;-60
2021/03/22 05:31:13;;;;;;;10.70;3.88;;;;;;;6.42;61.82;100883.75;4924062;28;113730;-63
2021/03/22 05:33:39;;;;;;;11.02;3.55;;;;;;;6.46;62.21;100887.63;4921514;28;119312;-60
2021/03/22 05:36:05;;;;;;;12.95;4.20;;;;;;;6.51;62.12;100893.09;4923420;28;127995;-60
2021/03/22 05:38:32;;;;;;;9.75;3.33;;;;;;;6.56;62.50;100895.91;4921154;28;98897;-63
2021/03/22 05:41:07;;;;;;;12.55;3.30;;;;;;;6.68;62.21;100901.28;4920612;28;114291;-63
2021/03/22 05:43:42;;;;;;;12.20;3.50;;;;;;;6.65;62.34;100901.75;4920725;28;99444;-60
2021/03/22 05:46:32;;;;;;;10.63;3.25;;;;;;;6.79;61.48;100907.69;4919980;28;99103;-63
2021/03/22 05:49:19;;;;;;;12.50;3.40;;;;;;;6.87;61.58;100899.31;4920909;28;98122;-60
2021/03/22 05:52:13;;;;;;;9.68;3.25;;;;;;;7.00;61.51;100904.47;4921081;28;97941;-63
2021/03/22 05:55:01;;;;;;;8.80;2.65;;;;;;;7.11;61.52;100892.09;4918482;28;98242;-63
2021/03/22 05:57:40;;;;;;;9.13;2.88;;;;;;;7.22;60.97;100895.81;4904577;28;98963;-60
2021/03/22 06:00:53;;;;;;;9.93;2.58;;;;;;;7.32;60.94;100891.50;4918598;28;98573;-63
2021/03/22 06:03:53;;;;;;;11.80;2.63;;;;;;;7.51;61.12;100889.50;4918224;28;98076;-60
2021/03/22 06:06:37;;;;;;;10.30;2.50;;;;;;;7.70;60.47;100883.94;4918631;28;98179;-60
2021/03/22 06:09:28;;;;;;;9.80;2.60;;;;;;;7.82;60.75;100876.66;4919267;28;98725;-63
2021/03/22 06:12:36;;;;;;;10.15;2.75;;;;;;;8.04;60.40;100891.06;4922243;28;98237;-60
2021/03/22 06:15:23;;;;;;;13.27;2.80;;;;;;;8.23;60.09;100893.56;4900511;28;98399;-60
2021/03/22 06:18:11;;;;;;;12.32;2.90;;;;;;;8.37;59.59;100892.22;4923094;28;98324;-60
2021/03/22 06:20:39;;;;;;;10.07;2.40;;;;;;;8.52;59.89;100902.41;4919794;28;99136;-63
2021/03/22 06:23:34;;;;;;;10.65;2.55;;;;;;;8.47;60.04;100911.19;4922797;28;98296;-63
2021/03/22 06:26:01;;;;;;;8.30;2.30;;;;;;;8.51;60.31;100911.53;4921468;28;98047;-63
2021/03/22 06:28:29;;;;;;;10.95;2.38;;;;;;;8.45;60.44;100921.38;4922379;28;99048;-63
2021/03/22 06:31:07;;;;;;;11.55;2.70;;;;;;;8.59;60.28;100914.63;4921970;28;99076;-60
2021/03/22 06:33:47;;;;;;;10.57;2.40;;;;;;;8.70;60.50;100917.50;4921819;28;98403;-63
2021/03/22 06:36:17;;;;;;;8.27;1.90;;;;;;;8.83;60.55;100920.66;4921361;28;98176;-60
2021/03/22 06:38:47;;;;;;;10.10;2.25;;;;;;;8.97;60.49;100926.53;4923059;28;98153;-60
2021/03/22 06:41:41;;;;;;;10.02;2.08;;;;;;;9.07;60.13;100917.81;4922613;28;99049;-63
2021/03/22 06:44:18;;;;;;;9.40;2.30;;;;;;;9.12;59.65;100925.97;4922771;28;97880;-60
2021/03/22 06:47:02;;;;;;;8.80;2.33;;;;;;;9.30;60.75;100944.50;4920868;28;98145;-60
2021/03/22 06:49:36;;;;;;;9.80;1.92;;;;;;;9.32;60.15;100938.91;4922580;28;98277;-63
2021/03/22 06:52:09;;;;;;;11.75;2.58;;;;;;;9.48;59.69;100948.00;4921127;28;98372;-60
2021/03/22 06:54:41;;;;;;;11.05;2.35;;;;;;;9.63;59.53;100950.06;4922623;28;98015;-63
2021/03/22 06:57:16;;;;;;;8.43;2.27;;;;;;;9.67;59.48;100953.88;4923305;28;97843;-60
2021/03/22 07:00:15;;;;;;;8.85;2.15;;;;;;;9.92;59.38;100953.41;4922325;28;98544;-60
2021/03/22 07:02:58;;;;;;;9.65;2.35;;;;;;;9.91;59.82;100960.66;4922327;28;109395;-64
2021/03/22 07:05:28;;;;;;;;;;;;;;;10.21;59.13;100960.19;4922928;28;98271;-63
2021/03/22 07:08:05;;;;;;;8.32;2.13;;;;;;;10.41;59.12;100970.41;4923462;28;97904;-63
2021/03/22 07:10:37;;;;;;;7.72;2.20;;;;;;;10.61;58.06;100966.28;4922436;28;98513;-63
2021/03/22 07:13:04;;;;;;;9.75;2.47;;;;;;;10.68;58.00;100973.09;4921960;28;98415;-64
2021/03/22 07:15:36;;;;;;;10.18;2.45;;;;;;;11.10;57.42;100976.97;4921944;28;98746;-63
2021/03/22 07:18:20;;;;;;;9.10;2.87;;;;;;;11.52;56.50;100980.50;4923472;28;97797;-60
2021/03/22 07:21:00;;;;;;;9.35;2.50;;;;;;;11.62;56.62;100971.63;4902826;28;99104;-60
2021/03/22 07:23:26;;;;;;;11.93;2.80;;;;;;;11.58;56.95;100983.22;4903033;28;98222;-64
2021/03/22 07:26:14;;;;;;;11.88;2.50;;;;;;;11.57;57.31;100981.59;4903253;28;98358;-61
2021/03/22 07:29:06;;;;;;;9.88;2.35;;;;;;;11.46;58.12;100981.53;4902729;28;98169;-60
2021/03/22 07:31:38;;;;;;;10.60;2.63;;;;;;;11.80;56.84;100978.50;4901084;28;97877;-64
2021/03/22 07:34:48;;;;;;;12.27;2.72;;;;;;;11.83;57.25;100979.84;4917154;28;99528;-61
2021/03/22 07:37:26;;;;;;;11.60;2.92;;;;;;;11.91;57.53;100979.38;4918846;28;117597;-60
2021/03/22 07:40:41;;;;;;;11.05;2.53;;;;;;;12.03;57.18;100971.88;4921847;28;98124;-60
2021/03/22 07:43:32;;;;;;;12.82;2.83;;;;;;;12.42;56.23;100969.56;4920018;28;98692;-61
2021/03/22 07:46:32;;;;;;;8.90;2.42;;;;;;;12.87;55.30;100972.56;4922494;28;98093;-63
2021/03/22 07:49:16;;;;;;;9.00;2.80;;;;;;;13.04;55.07;100964.97;4920069;28;100515;-64
2021/03/22 07:52:19;;;;;;;10.32;2.50;;;;;;;13.79;53.44;100967.84;4920774;28;97959;-61
2021/03/22 07:55:14;;;;;;;7.55;2.05;;;;;;;13.96;53.44;100968.31;4898806;28;98141;-61
2021/03/22 07:58:10;;;;;;;9.57;2.50;;;;;;;14.36;52.57;100966.50;4919260;28;97863;-60
2021/03/22 08:00:59;;;;;;;8.98;2.55;;;;;;;14.89;51.29;100972.09;4897194;28;97931;-60
2021/03/22 08:03:55;;;;;;;11.45;2.90;;;;;;;15.42;51.25;100971.38;4889179;28;98345;-64
2021/03/22 08:06:57;;;;;;;9.57;2.40;;;;;;;16.02;49.48;100974.50;4876065;28;99180;-61
2021/03/22 08:09:47;;;;;;;8.73;2.43;;;;;;;16.52;48.68;100974.94;4878488;28;98519;-61
2021/03/22 08:12:31;;;;;;;8.68;2.08;;;;;;;17.49;46.67;100970.63;4901380;28;97857;-64
2021/03/22 08:15:28;;;;;;;9.18;2.38;;;;;;;18.21;44.97;100978.19;4895443;28;98518;-64
2021/03/22 08:18:02;;;;;;;8.10;2.05;;;;;;;19.89;41.47;100977.88;4863245;28;99717;-64
2021/03/22 08:20:35;;;;;;;6.53;2.13;;;;;;;21.28;39.07;100975.94;4861858;28;99118;-65
2021/03/22 08:23:09;;;;;;;;;;;;;;;23.41;34.94;100982.53;4863824;28;97834;-65
2021/03/22 08:25:55;;;;;;;9.93;2.53;;;;;;;23.58;34.79;100992.56;4893906;28;98581;-65
2021/03/22 08:28:40;;;;;;;7.82;2.38;;;;;;;23.86;34.45;100994.66;4862367;28;98409;-61
2021/03/22 08:31:30;;;;;;;8.55;2.40;;;;;;;23.84;34.72;101011.50;4891909;28;99756;-65
2021/03/22 08:34:20;;;;;;;7.20;2.35;;;;;;;24.45;34.25;101007.91;4863544;28;97921;-61
2021/03/22 08:37:12;;;;;;;7.75;2.13;;;;;;;24.46;34.81;101015.81;4863437;28;98908;-61
2021/03/22 08:39:47;;;;;;;7.30;2.20;;;;;;;24.31;34.41;101019.25;4876503;28;99479;-61
2021/03/22 08:42:18;;;;;;;5.72;1.85;;;;;;;24.14;35.36;101014.81;4846498;28;97971;-61
2021/03/22 08:44:47;;;;;;;6.45;2.00;;;;;;;24.24;35.61;101021.78;4861476;28;98063;-65
2021/03/22 08:47:54;;;;;;;8.52;2.33;;;;;;;24.71;35.68;101019.28;4876017;28;98362;-64
2021/03/22 08:50:24;;;;;;;6.97;2.15;;;;;;;24.49;36.15;101028.09;4860173;28;118802;-61
2021/03/22 08:53:13;;;;;;;8.52;2.05;;;;;;;24.68;36.14;101027.47;4877950;28;97872;-65
2021/03/22 08:55:39;;;;;;;5.35;1.60;;;;;;;24.76;36.53;101029.28;4876077;28;97789;-65
2021/03/22 08:58:48;;;;;;;6.45;2.00;;;;;;;25.20;36.24;101018.31;4887247;28;99123;-65
2021/03/22 09:01:35;;;;;;;6.60;2.05;;;;;;;25.43;36.45;101019.34;4876932;28;99618;-61
2021/03/22 09:04:20;;;;;;;6.80;1.60;;;;;;;25.76;35.90;101020.13;4860202;28;98063;-65
2021/03/22 09:07:22;;;;;;;5.13;1.52;;;;;;;26.18;35.57;101021.19;4890520;28;100065;-65
2021/03/22 09:09:48;;;;;;;6.38;1.75;;;;;;;26.37;35.34;101023.19;4868974;28;98924;-65
2021/03/22 09:12:43;;;;;;;6.25;1.58;;;;;;;26.83;34.91;101020.59;4883052;28;99268;-61
2021/03/22 09:15:57;;;;;;;6.18;1.92;;;;;;;27.12;34.71;101016.47;4877473;28;98524;-61
2021/03/22 09:18:23;;;;;;;6.32;2.00;;;;;;;27.53;33.97;101016.00;4902981;28;98680;-61
2021/03/22 09:20:49;;;;;;;4.78;1.63;;;;;;;27.87;33.82;101022.53;4879973;28;121012;-65
2021/03/22 09:23:31;;;;;;;6.50;1.73;;;;;;;28.14;33.50;101020.56;4864757;28;97835;-61
2021/03/22 09:26:09;;;;;;;3.97;1.53;;;;;;;28.42;33.50;101034.06;4864713;28;98348;-65
2021/03/22 09:28:39;;;;;;;4.15;1.60;;;;;;;28.60;32.82;101023.97;4853080;28;98039;-65
2021/03/22 09:31:15;;;;;;;4.45;1.70;;;;;;;28.89;32.48;101023.53;4881857;28;97934;-65
2021/03/22 09:33:58;;;;;;;4.70;1.67;;;;;;;29.13;32.27;101023.03;4884298;28;98604;-65
2021/03/22 09:36:39;;;;;;;3.75;1.48;;;;;;;29.44;31.88;101023.75;4884268;28;98584;-61
2021/03/22 09:39:20;;;;;;;4.97;1.70;;;;;;;29.72;31.63;101017.66;4870153;28;98185;-65
2021/03/22 09:41:52;;;;;;;4.05;1.35;;;;;;;29.92;31.43;101019.00;4864931;28;98716;-65
2021/03/22 09:44:19;;;;;;;5.47;1.50;;;;;;;30.20;31.03;101015.63;4865092;28;98882;-61
2021/03/22 09:47:01;;;;;;;3.80;1.30;;;;;;;30.42;31.04;101018.50;4830845;28;98503;-65
2021/03/22 09:49:28;;;;;;;;;;;;;;;31.01;29.71;101010.84;4866645;28;97828;-66
2021/03/22 09:52:13;;;;;;;3.72;1.13;;;;;;;31.00;29.98;101010.03;4863048;28;98675;-65
2021/03/22 09:54:43;;;;;;;3.28;1.30;;;;;;;31.41;29.50;101008.94;4849820;28;98910;-62
2021/03/22 09:57:31;;;;;;;3.58;1.08;;;;;;;31.54;29.43;101007.34;4864595;28;98545;-66
2021/03/22 10:00:24;;;;;;;4.57;1.10;;;;;;;31.57;29.33;101016.91;4863265;28;97874;-66
2021/03/22 10:02:58;;;;;;;3.70;1.02;;;;;;;31.12;29.86;101019.97;4884276;28;98596;-66
2021/03/22 10:05:46;;;;;;;4.25;0.90;;;;;;;29.25;31.67;101017.22;4883163;28;99076;-61
2021/03/22 10:08:12;;;;;;;3.40;0.77;;;;;;;27.29;32.86;101022.69;4884698;28;98255;-61
2021/03/22 10:10:55;;;;;;;3.70;1.10;;;;;;;27.76;32.26;101007.72;4876592;28;98104;-65
2021/03/22 10:13:41;;;;;;;2.92;0.82;;;;;;;29.26;29.56;101010.47;4863482;28;98568;-65
2021/03/22 10:16:29;;;;;;;3.72;1.08;;;;;;;30.31;28.79;100994.25;4873244;28;97918;-61
2021/03/22 10:19:03;;;;;;;2.75;0.80;;;;;;;30.90;28.29;100996.09;4862054;28;98062;-66
2021/03/22 10:21:33;;;;;;;2.63;0.60;;;;;;;31.56;27.20;101004.97;4864127;28;97901;-65
2021/03/22 10:24:15;;;;;;;2.17;0.70;;;;;;;32.23;26.73;101000.50;4863076;28;98644;-66
2021/03/22 10:26:50;;;;;;;2.42;0.60;;;;;;;32.69;26.53;101003.13;4865288;28;98805;-62
2021/03/22 10:29:25;;;;;;;2.22;0.80;;;;;;;33.28;25.64;101007.19;4884290;28;97923;-62
2021/03/22 10:32:14;;;;;;;2.85;0.80;;;;;;;33.95;25.15;100992.66;4871250;28;100449;-66
2021/03/22 10:34:52;;;;;;;2.30;0.73;;;;;;;33.54;25.68;100994.66;4864200;28;99295;-66
2021/03/22 10:37:24;;;;;;;3.15;0.70;;;;;;;33.18;25.85;101000.50;4846669;28;98891;-62
2021/03/22 10:39:51;;;;;;;2.20;0.70;;;;;;;33.82;25.54;100993.59;4862355;28;98073;-66
2021/03/22 10:42:38;;;;;;;3.80;0.82;;;;;;;34.68;24.44;100993.44;4847686;28;98098;-62
2021/03/22 10:45:23;;;;;;;3.20;0.60;;;;;;;34.41;25.13;100990.56;4864241;28;98764;-66
2021/03/22 10:47:51;;;;;;;1.98;0.70;;;;;;;34.68;24.20;100982.25;4864456;28;98428;-62
2021/03/22 10:50:32;;;;;;;1.88;0.65;;;;;;;35.90;22.43;100973.50;4879956;28;116461;-66
2021/03/22 10:53:11;;;;;;;2.72;0.65;;;;;;;36.50;21.83;100975.56;4884505;28;98247;-66
2021/03/22 10:55:39;;;;;;;1.92;0.60;;;;;;;36.56;21.81;100980.25;4883101;28;98301;-62
2021/03/22 10:58:10;;;;;;;2.28;0.60;;;;;;;35.65;22.91;100982.38;4870937;28;98807;-62
2021/03/22 11:00:42;;;;;;;2.55;0.60;;;;;;;33.75;25.12;100983.28;4861954;28;98010;-62
2021/03/22 11:03:08;;;;;;;4.35;0.50;;;;;;;34.88;23.53;100971.19;4863294;28;98113;-62
2021/03/22 11:05:40;;;;;;;2.25;0.70;;;;;;;35.44;22.75;100971.50;4830272;28;98427;-61
2021/03/22 11:08:36;;;;;;;1.50;0.50;;;;;;;36.14;22.17;100985.50;4863279;28;98338;-62
2021/03/22 11:11:07;;;;;;;2.67;0.60;;;;;;;36.59;21.77;100982.19;4862373;28;98573;-65
2021/03/22 11:13:38;;;;;;;2.15;0.60;;;;;;;37.11;20.93;100972.22;4862772;28;98517;-66
2021/03/22 11:16:07;;;;;;;1.63;0.50;;;;;;;37.75;20.17;100969.78;4846609;28;98593;-65
2021/03/22 11:18:33;;;;;;;2.70;0.60;;;;;;;37.91;19.91;100980.25;4864557;28;99408;-66
2021/03/22 11:21:00;;;;;;;1.73;0.40;;;;;;;38.15;19.93;100966.69;4862658;28;127254;-62
2021/03/22 11:23:32;;;;;;;2.33;0.43;;;;;;;38.34;19.68;100962.94;4830892;28;98058;-66
2021/03/22 11:26:25;;;;;;;1.42;0.40;;;;;;;38.41;19.44;100968.38;4869008;28;98211;-66
2021/03/22 11:28:52;;;;;;;1.77;0.50;;;;;;;38.10;20.37;100970.84;4882233;28;98969;-62
2021/03/22 11:31:28;;;;;;;2.15;0.50;;;;;;;34.68;23.46;100966.25;4873581;28;97981;-66
2021/03/22 11:34:02;;;;;;;1.20;0.28;;;;;;;32.33;25.25;100963.41;4862516;28;98188;-65
2021/03/22 11:36:41;;;;;;;2.20;0.40;;;;;;;31.58;25.21;100958.00;4870894;28;111904;-61
2021/03/22 11:39:20;;;;;;;2.35;0.40;;;;;;;32.40;24.88;100949.47;4882343;28;98635;-61
2021/03/22 11:42:03;;;;;;;1.75;0.30;;;;;;;30.55;26.51;100956.63;4878157;28;97899;-65
2021/03/22 11:44:33;;;;;;;1.73;0.30;;;;;;;31.16;25.97;100950.41;4863927;28;98049;-61
2021/03/22 11:47:36;;;;;;;1.58;0.40;;;;;;;31.51;25.05;100947.66;4863788;28;98961;-65
2021/03/22 11:50:33;;;;;;;1.50;0.30;;;;;;;32.35;24.44;100941.50;4863856;28;98696;-61
2021/03/22 11:53:12;;;;;;;1.25;0.20;;;;;;;32.70;24.02;100951.72;4863785;28;97924;-65
2021/03/22 11:55:44;;;;;;;1.02;0.30;;;;;;;33.10;23.56;100946.72;4861143;28;97933;-62
2021/03/22 11:58:39;;;;;;;1.35;0.30;;;;;;;33.69;23.48;100943.81;4863484;28;98493;-61
2021/03/22 12:01:31;;;;;;;1.23;0.30;;;;;;;34.17;23.49;100948.50;4863598;28;98409;-62
2021/03/22 12:04:03;;;;;;;2.28;0.30;;;;;;;33.59;22.77;100958.69;4867334;28;121199;-66
2021/03/22 12:06:29;;;;;;;1.92;0.20;;;;;;;31.60;25.20;100949.22;4882735;28;97795;-61
2021/03/22 12:08:56;;;;;;;1.60;0.20;;;;;;;29.87;27.51;100940.75;4879652;28;115587;-61
2021/03/22 12:11:29;;;;;;;1.75;0.20;;;;;;;29.47;27.47;100940.47;4880194;28;98620;-65